sensor_id;sensor_type;location;lat;lon;timestamp;pressure;altitude;pressure_sealevel;temperature
20092;BMP180;10205;49.678;6.560;2022-12-29T00:00:21;99121.00;;;13.70
20092;BMP180;10205;49.678;6.560;2022-12-29T00:02:51;99111.00;;;13.70
20092;BMP180;10205;49.678;6.560;2022-12-29T00:05:20;99136.00;;;13.70
20092;BMP180;10205;49.678;6.560;2022-12-29T00:07:48;99121.00;;;13.70
20092;BMP180;10205;49.678;6.560;2022-12-29T00:10:15;99120.00;;;13.70
20092;BMP180;10205;49.678;6.560;2022-12-29T00:12:42;99116.00;;;13.70
20092;BMP180;10205;49.678;6.560;2022-12-29T00:15:28;99111.00;;;13.70
20092;BMP180;10205;49.678;6.560;2022-12-29T00:18:04;99118.00;;;13.70
20092;BMP180;10205;49.678;6.560;2022-12-29T00:20:34;99121.00;;;13.70
20092;BMP180;10205;49.678;6.560;2022-12-29T00:23:19;99111.00;;;13.70
20092;BMP180;10205;49.678;6.560;2022-12-29T00:26:11;99126.00;;;13.80
20092;BMP180;10205;49.678;6.560;2022-12-29T00:28:56;99116.00;;;13.70
20092;BMP180;10205;49.678;6.560;2022-12-29T00:31:42;99128.00;;;13.80
20092;BMP180;10205;49.678;6.560;2022-12-29T00:34:27;99129.00;;;13.80
20092;BMP180;10205;49.678;6.560;2022-12-29T00:37:12;99118.00;;;13.80
20092;BMP180;10205;49.678;6.560;2022-12-29T00:39:39;99110.00;;;13.80
20092;BMP180;10205;49.678;6.560;2022-12-29T00:42:23;99117.00;;;13.80
20092;BMP180;10205;49.678;6.560;2022-12-29T00:45:08;99118.00;;;13.80
20092;BMP180;10205;49.678;6.560;2022-12-29T00:47:37;99105.00;;;13.80
20092;BMP180;10205;49.678;6.560;2022-12-29T00:50:05;99112.00;;;13.80
20092;BMP180;10205;49.678;6.560;2022-12-29T00:52:31;99111.00;;;13.80
20092;BMP180;10205;49.678;6.560;2022-12-29T00:54:58;99103.00;;;13.80
20092;BMP180;10205;49.678;6.560;2022-12-29T00:57:25;99094.00;;;13.80
20092;BMP180;10205;49.678;6.560;2022-12-29T00:59:52;99093.00;;;13.80
20092;BMP180;10205;49.678;6.560;2022-12-29T01:02:19;99089.00;;;13.80
20092;BMP180;10205;49.678;6.560;2022-12-29T01:04:48;99081.00;;;13.80
20092;BMP180;10205;49.678;6.560;2022-12-29T01:07:15;99076.00;;;13.80
20092;BMP180;10205;49.678;6.560;2022-12-29T01:09:42;99077.00;;;13.90
20092;BMP180;10205;49.678;6.560;2022-12-29T01:12:26;99075.00;;;13.90
20092;BMP180;10205;49.678;6.560;2022-12-29T01:15:13;99063.00;;;13.90
20092;BMP180;10205;49.678;6.560;2022-12-29T01:17:41;99078.00;;;13.90
20092;BMP180;10205;49.678;6.560;2022-12-29T01:20:12;99058.00;;;13.90
20092;BMP180;10205;49.678;6.560;2022-12-29T01:22:40;99063.00;;;13.90
20092;BMP180;10205;49.678;6.560;2022-12-29T01:25:08;99053.00;;;13.90
20092;BMP180;10205;49.678;6.560;2022-12-29T01:27:36;99057.00;;;13.90
20092;BMP180;10205;49.678;6.560;2022-12-29T01:30:04;99053.00;;;13.90
20092;BMP180;10205;49.678;6.560;2022-12-29T01:32:31;99058.00;;;13.90
20092;BMP180;10205;49.678;6.560;2022-12-29T01:34:59;99059.00;;;13.90
20092;BMP180;10205;49.678;6.560;2022-12-29T01:37:28;99057.00;;;13.90
20092;BMP180;10205;49.678;6.560;2022-12-29T01:39:55;99065.00;;;13.90
20092;BMP180;10205;49.678;6.560;2022-12-29T01:42:24;99066.00;;;13.90
20092;BMP180;10205;49.678;6.560;2022-12-29T01:44:55;99052.00;;;13.90
20092;BMP180;10205;49.678;6.560;2022-12-29T01:47:39;99053.00;;;13.90
20092;BMP180;10205;49.678;6.560;2022-12-29T01:50:10;99039.00;;;13.90
20092;BMP180;10205;49.678;6.560;2022-12-29T01:52:45;99056.00;;;13.90
20092;BMP180;10205;49.678;6.560;2022-12-29T01:55:15;99038.00;;;13.90
20092;BMP180;10205;49.678;6.560;2022-12-29T01:57:47;99047.00;;;13.90
20092;BMP180;10205;49.678;6.560;2022-12-29T02:00:17;99039.00;;;13.90
20092;BMP180;10205;49.678;6.560;2022-12-29T02:02:49;99055.00;;;13.90
20092;BMP180;10205;49.678;6.560;2022-12-29T02:05:27;99033.00;;;13.90
20092;BMP180;10205;49.678;6.560;2022-12-29T02:07:56;99020.00;;;13.90
20092;BMP180;10205;49.678;6.560;2022-12-29T02:10:26;99026.00;;;13.90
20092;BMP180;10205;49.678;6.560;2022-12-29T02:12:55;99021.00;;;13.80
20092;BMP180;10205;49.678;6.560;2022-12-29T02:15:35;99004.00;;;13.90
20092;BMP180;10205;49.678;6.560;2022-12-29T02:18:23;99006.00;;;13.80
20092;BMP180;10205;49.678;6.560;2022-12-29T02:21:56;99010.00;;;13.80
20092;BMP180;10205;49.678;6.560;2022-12-29T02:28:36;99022.00;;;13.70
20092;BMP180;10205;49.678;6.560;2022-12-29T02:31:16;99019.00;;;13.70
20092;BMP180;10205;49.678;6.560;2022-12-29T02:34:00;98988.00;;;13.70
20092;BMP180;10205;49.678;6.560;2022-12-29T02:36:43;98988.00;;;13.80
20092;BMP180;10205;49.678;6.560;2022-12-29T02:39:21;98969.00;;;13.80
20092;BMP180;10205;49.678;6.560;2022-12-29T02:42:02;98981.00;;;13.80
20092;BMP180;10205;49.678;6.560;2022-12-29T02:44:45;98965.00;;;13.80
20092;BMP180;10205;49.678;6.560;2022-12-29T02:47:25;98973.00;;;13.80
20092;BMP180;10205;49.678;6.560;2022-12-29T02:50:01;98972.00;;;13.80
20092;BMP180;10205;49.678;6.560;2022-12-29T02:52:35;98962.00;;;13.80
20092;BMP180;10205;49.678;6.560;2022-12-29T02:55:05;98968.00;;;13.80
20092;BMP180;10205;49.678;6.560;2022-12-29T02:57:34;98964.00;;;13.80
20092;BMP180;10205;49.678;6.560;2022-12-29T03:00:05;98981.00;;;13.80
20092;BMP180;10205;49.678;6.560;2022-12-29T03:03:05;98960.00;;;13.80
20092;BMP180;10205;49.678;6.560;2022-12-29T03:05:55;98966.00;;;13.80
20092;BMP180;10205;49.678;6.560;2022-12-29T03:08:34;98951.00;;;13.80
20092;BMP180;10205;49.678;6.560;2022-12-29T03:11:09;98948.00;;;13.80
20092;BMP180;10205;49.678;6.560;2022-12-29T03:14:02;98942.00;;;13.80
20092;BMP180;10205;49.678;6.560;2022-12-29T03:16:58;98939.00;;;13.80
20092;BMP180;10205;49.678;6.560;2022-12-29T03:19:32;98947.00;;;13.80
20092;BMP180;10205;49.678;6.560;2022-12-29T03:22:05;98944.00;;;13.90
20092;BMP180;10205;49.678;6.560;2022-12-29T03:25:04;98949.00;;;13.90
20092;BMP180;10205;49.678;6.560;2022-12-29T03:27:40;98956.00;;;13.90
20092;BMP180;10205;49.678;6.560;2022-12-29T03:30:09;98956.00;;;13.90
20092;BMP180;10205;49.678;6.560;2022-12-29T03:32:42;98942.00;;;13.90
20092;BMP180;10205;49.678;6.560;2022-12-29T03:35:15;98940.00;;;13.90
20092;BMP180;10205;49.678;6.560;2022-12-29T03:37:50;98948.00;;;13.90
20092;BMP180;10205;49.678;6.560;2022-12-29T03:40:22;98931.00;;;13.90
20092;BMP180;10205;49.678;6.560;2022-12-29T03:42:52;98936.00;;;13.90
20092;BMP180;10205;49.678;6.560;2022-12-29T03:45:20;98942.00;;;14.00
20092;BMP180;10205;49.678;6.560;2022-12-29T03:47:47;98924.00;;;14.00
20092;BMP180;10205;49.678;6.560;2022-12-29T03:50:16;98932.00;;;14.00
20092;BMP180;10205;49.678;6.560;2022-12-29T03:52:43;98934.00;;;14.00
20092;BMP180;10205;49.678;6.560;2022-12-29T03:55:10;98928.00;;;14.00
20092;BMP180;10205;49.678;6.560;2022-12-29T03:57:37;98935.00;;;14.00
20092;BMP180;10205;49.678;6.560;2022-12-29T04:00:07;98929.00;;;14.00
20092;BMP180;10205;49.678;6.560;2022-12-29T04:02:34;98937.00;;;14.00
20092;BMP180;10205;49.678;6.560;2022-12-29T04:05:02;98954.00;;;14.00
20092;BMP180;10205;49.678;6.560;2022-12-29T04:07:30;98941.00;;;14.00
20092;BMP180;10205;49.678;6.560;2022-12-29T04:09:57;98958.00;;;14.00
20092;BMP180;10205;49.678;6.560;2022-12-29T04:12:25;98952.00;;;14.00
20092;BMP180;10205;49.678;6.560;2022-12-29T04:14:52;98945.00;;;14.00
20092;BMP180;10205;49.678;6.560;2022-12-29T04:17:19;98954.00;;;14.00
20092;BMP180;10205;49.678;6.560;2022-12-29T04:19:46;98952.00;;;14.00
20092;BMP180;10205;49.678;6.560;2022-12-29T04:22:13;98937.00;;;14.00
20092;BMP180;10205;49.678;6.560;2022-12-29T04:24:41;98939.00;;;14.00
20092;BMP180;10205;49.678;6.560;2022-12-29T04:27:08;98948.00;;;14.00
20092;BMP180;10205;49.678;6.560;2022-12-29T04:29:35;98943.00;;;14.00
20092;BMP180;10205;49.678;6.560;2022-12-29T04:32:02;98936.00;;;14.10
20092;BMP180;10205;49.678;6.560;2022-12-29T04:34:29;98942.00;;;14.00
20092;BMP180;10205;49.678;6.560;2022-12-29T04:36:56;98938.00;;;14.00
20092;BMP180;10205;49.678;6.560;2022-12-29T04:39:24;98920.00;;;14.00
20092;BMP180;10205;49.678;6.560;2022-12-29T04:41:52;98931.00;;;14.00
20092;BMP180;10205;49.678;6.560;2022-12-29T04:44:19;98932.00;;;14.10
20092;BMP180;10205;49.678;6.560;2022-12-29T04:46:46;98932.00;;;14.10
20092;BMP180;10205;49.678;6.560;2022-12-29T04:49:13;98915.00;;;14.10
20092;BMP180;10205;49.678;6.560;2022-12-29T04:51:40;98934.00;;;14.10
20092;BMP180;10205;49.678;6.560;2022-12-29T04:54:07;98918.00;;;14.10
20092;BMP180;10205;49.678;6.560;2022-12-29T04:56:34;98910.00;;;14.10
20092;BMP180;10205;49.678;6.560;2022-12-29T04:59:03;98913.00;;;14.10
20092;BMP180;10205;49.678;6.560;2022-12-29T05:01:30;98920.00;;;14.10
20092;BMP180;10205;49.678;6.560;2022-12-29T05:04:00;98919.00;;;14.10
20092;BMP180;10205;49.678;6.560;2022-12-29T05:06:27;98916.00;;;14.10
20092;BMP180;10205;49.678;6.560;2022-12-29T05:08:54;98916.00;;;14.10
20092;BMP180;10205;49.678;6.560;2022-12-29T05:11:21;98918.00;;;14.10
20092;BMP180;10205;49.678;6.560;2022-12-29T05:13:48;98908.00;;;14.10
20092;BMP180;10205;49.678;6.560;2022-12-29T05:16:16;98905.00;;;14.10
20092;BMP180;10205;49.678;6.560;2022-12-29T05:18:43;98906.00;;;14.20
20092;BMP180;10205;49.678;6.560;2022-12-29T05:21:10;98928.00;;;14.20
20092;BMP180;10205;49.678;6.560;2022-12-29T05:23:37;98908.00;;;14.20
20092;BMP180;10205;49.678;6.560;2022-12-29T05:26:05;98918.00;;;14.20
20092;BMP180;10205;49.678;6.560;2022-12-29T05:28:32;98927.00;;;14.20
20092;BMP180;10205;49.678;6.560;2022-12-29T05:30:59;98933.00;;;14.20
20092;BMP180;10205;49.678;6.560;2022-12-29T05:33:27;98929.00;;;14.20
20092;BMP180;10205;49.678;6.560;2022-12-29T05:35:54;98921.00;;;14.20
20092;BMP180;10205;49.678;6.560;2022-12-29T05:38:21;98921.00;;;14.10
20092;BMP180;10205;49.678;6.560;2022-12-29T05:40:48;98920.00;;;14.10
20092;BMP180;10205;49.678;6.560;2022-12-29T05:43:15;98919.00;;;14.10
20092;BMP180;10205;49.678;6.560;2022-12-29T05:45:43;98914.00;;;14.10
20092;BMP180;10205;49.678;6.560;2022-12-29T05:48:10;98941.00;;;14.10
20092;BMP180;10205;49.678;6.560;2022-12-29T05:50:38;98930.00;;;14.10
20092;BMP180;10205;49.678;6.560;2022-12-29T05:53:05;98927.00;;;14.10
20092;BMP180;10205;49.678;6.560;2022-12-29T05:55:32;98914.00;;;14.10
20092;BMP180;10205;49.678;6.560;2022-12-29T05:57:59;98929.00;;;14.10
20092;BMP180;10205;49.678;6.560;2022-12-29T06:00:26;98942.00;;;14.10
20092;BMP180;10205;49.678;6.560;2022-12-29T06:02:53;98941.00;;;14.10
20092;BMP180;10205;49.678;6.560;2022-12-29T06:05:20;98925.00;;;14.10
20092;BMP180;10205;49.678;6.560;2022-12-29T06:07:49;98924.00;;;14.10
20092;BMP180;10205;49.678;6.560;2022-12-29T06:10:16;98936.00;;;14.10
20092;BMP180;10205;49.678;6.560;2022-12-29T06:12:44;98919.00;;;14.10
20092;BMP180;10205;49.678;6.560;2022-12-29T06:15:11;98927.00;;;14.10
20092;BMP180;10205;49.678;6.560;2022-12-29T06:17:38;98931.00;;;14.10
20092;BMP180;10205;49.678;6.560;2022-12-29T06:20:07;98947.00;;;14.10
20092;BMP180;10205;49.678;6.560;2022-12-29T06:22:35;98922.00;;;14.10
20092;BMP180;10205;49.678;6.560;2022-12-29T06:25:05;98933.00;;;14.10
20092;BMP180;10205;49.678;6.560;2022-12-29T06:27:33;98933.00;;;14.10
20092;BMP180;10205;49.678;6.560;2022-12-29T06:30:00;98947.00;;;14.10
20092;BMP180;10205;49.678;6.560;2022-12-29T06:32:27;98957.00;;;14.10
20092;BMP180;10205;49.678;6.560;2022-12-29T06:34:54;98945.00;;;14.10
20092;BMP180;10205;49.678;6.560;2022-12-29T06:37:21;98941.00;;;14.10
20092;BMP180;10205;49.678;6.560;2022-12-29T06:39:48;98946.00;;;14.10
20092;BMP180;10205;49.678;6.560;2022-12-29T06:42:24;98948.00;;;14.10
20092;BMP180;10205;49.678;6.560;2022-12-29T06:44:51;98963.00;;;14.10
20092;BMP180;10205;49.678;6.560;2022-12-29T06:47:19;98971.00;;;14.10
20092;BMP180;10205;49.678;6.560;2022-12-29T06:49:46;98979.00;;;14.10
20092;BMP180;10205;49.678;6.560;2022-12-29T06:52:13;98977.00;;;14.10
20092;BMP180;10205;49.678;6.560;2022-12-29T06:54:40;98989.00;;;14.20
20092;BMP180;10205;49.678;6.560;2022-12-29T06:57:10;98975.00;;;14.10
20092;BMP180;10205;49.678;6.560;2022-12-29T06:59:39;98970.00;;;14.10
20092;BMP180;10205;49.678;6.560;2022-12-29T07:02:06;98966.00;;;14.10
20092;BMP180;10205;49.678;6.560;2022-12-29T07:04:33;98980.00;;;14.10
20092;BMP180;10205;49.678;6.560;2022-12-29T07:07:00;98993.00;;;14.10
20092;BMP180;10205;49.678;6.560;2022-12-29T07:09:28;98989.00;;;14.10
20092;BMP180;10205;49.678;6.560;2022-12-29T07:11:55;98987.00;;;14.10
20092;BMP180;10205;49.678;6.560;2022-12-29T07:14:22;98993.00;;;14.10
20092;BMP180;10205;49.678;6.560;2022-12-29T07:16:50;98993.00;;;14.10
20092;BMP180;10205;49.678;6.560;2022-12-29T07:19:17;99005.00;;;14.20
20092;BMP180;10205;49.678;6.560;2022-12-29T07:21:44;99023.00;;;14.20
20092;BMP180;10205;49.678;6.560;2022-12-29T07:24:11;99023.00;;;14.20
20092;BMP180;10205;49.678;6.560;2022-12-29T07:26:39;99017.00;;;14.20
20092;BMP180;10205;49.678;6.560;2022-12-29T07:29:06;99012.00;;;14.10
20092;BMP180;10205;49.678;6.560;2022-12-29T07:31:33;99024.00;;;14.20
20092;BMP180;10205;49.678;6.560;2022-12-29T07:34:02;99013.00;;;14.10
20092;BMP180;10205;49.678;6.560;2022-12-29T07:36:29;99030.00;;;14.20
20092;BMP180;10205;49.678;6.560;2022-12-29T07:38:56;99035.00;;;14.20
20092;BMP180;10205;49.678;6.560;2022-12-29T07:41:23;99027.00;;;14.20
20092;BMP180;10205;49.678;6.560;2022-12-29T07:43:50;99036.00;;;14.20
20092;BMP180;10205;49.678;6.560;2022-12-29T07:46:17;99037.00;;;14.20
20092;BMP180;10205;49.678;6.560;2022-12-29T07:48:44;99032.00;;;14.20
20092;BMP180;10205;49.678;6.560;2022-12-29T07:51:13;99023.00;;;14.20
20092;BMP180;10205;49.678;6.560;2022-12-29T07:53:40;99028.00;;;14.20
20092;BMP180;10205;49.678;6.560;2022-12-29T07:56:07;99038.00;;;14.20
20092;BMP180;10205;49.678;6.560;2022-12-29T07:58:34;99049.00;;;14.20
20092;BMP180;10205;49.678;6.560;2022-12-29T08:01:01;99037.00;;;14.20
20092;BMP180;10205;49.678;6.560;2022-12-29T08:03:28;99062.00;;;14.20
20092;BMP180;10205;49.678;6.560;2022-12-29T08:05:56;99059.00;;;14.20
20092;BMP180;10205;49.678;6.560;2022-12-29T08:08:25;99061.00;;;14.20
20092;BMP180;10205;49.678;6.560;2022-12-29T08:10:52;99079.00;;;14.20
20092;BMP180;10205;49.678;6.560;2022-12-29T08:13:19;99061.00;;;14.20
20092;BMP180;10205;49.678;6.560;2022-12-29T08:15:46;99068.00;;;14.20
20092;BMP180;10205;49.678;6.560;2022-12-29T08:18:16;99072.00;;;14.20
20092;BMP180;10205;49.678;6.560;2022-12-29T08:20:46;99074.00;;;14.20
20092;BMP180;10205;49.678;6.560;2022-12-29T08:23:13;99082.00;;;14.20
20092;BMP180;10205;49.678;6.560;2022-12-29T08:25:41;99080.00;;;14.20
20092;BMP180;10205;49.678;6.560;2022-12-29T08:28:11;99099.00;;;14.20
20092;BMP180;10205;49.678;6.560;2022-12-29T08:30:39;99102.00;;;14.20
20092;BMP180;10205;49.678;6.560;2022-12-29T08:33:06;99097.00;;;14.20
20092;BMP180;10205;49.678;6.560;2022-12-29T08:35:33;99108.00;;;14.20
20092;BMP180;10205;49.678;6.560;2022-12-29T08:38:01;99109.00;;;14.20
20092;BMP180;10205;49.678;6.560;2022-12-29T08:40:28;99112.00;;;14.20
20092;BMP180;10205;49.678;6.560;2022-12-29T08:42:56;99118.00;;;14.20
20092;BMP180;10205;49.678;6.560;2022-12-29T08:45:23;99114.00;;;14.10
20092;BMP180;10205;49.678;6.560;2022-12-29T08:47:50;99098.00;;;14.10
20092;BMP180;10205;49.678;6.560;2022-12-29T08:50:17;99101.00;;;14.10
20092;BMP180;10205;49.678;6.560;2022-12-29T08:52:44;99108.00;;;14.10
20092;BMP180;10205;49.678;6.560;2022-12-29T08:55:12;99118.00;;;14.10
20092;BMP180;10205;49.678;6.560;2022-12-29T08:57:39;99109.00;;;14.10
20092;BMP180;10205;49.678;6.560;2022-12-29T09:00:10;99115.00;;;14.10
20092;BMP180;10205;49.678;6.560;2022-12-29T09:02:37;99127.00;;;14.10
20092;BMP180;10205;49.678;6.560;2022-12-29T09:05:05;99138.00;;;14.10
20092;BMP180;10205;49.678;6.560;2022-12-29T09:07:33;99144.00;;;14.10
20092;BMP180;10205;49.678;6.560;2022-12-29T09:10:00;99140.00;;;14.10
20092;BMP180;10205;49.678;6.560;2022-12-29T09:12:28;99136.00;;;14.10
20092;BMP180;10205;49.678;6.560;2022-12-29T09:14:55;99154.00;;;14.10
20092;BMP180;10205;49.678;6.560;2022-12-29T09:17:24;99161.00;;;14.10
20092;BMP180;10205;49.678;6.560;2022-12-29T09:20:10;99126.00;;;14.10
20092;BMP180;10205;49.678;6.560;2022-12-29T09:22:38;99147.00;;;14.10
20092;BMP180;10205;49.678;6.560;2022-12-29T09:25:06;99150.00;;;14.10
20092;BMP180;10205;49.678;6.560;2022-12-29T09:27:35;99150.00;;;14.10
20092;BMP180;10205;49.678;6.560;2022-12-29T09:30:05;99157.00;;;14.10
20092;BMP180;10205;49.678;6.560;2022-12-29T09:32:35;99144.00;;;14.10
20092;BMP180;10205;49.678;6.560;2022-12-29T09:35:03;99166.00;;;14.10
20092;BMP180;10205;49.678;6.560;2022-12-29T09:37:31;99155.00;;;14.10
20092;BMP180;10205;49.678;6.560;2022-12-29T09:39:58;99166.00;;;14.10
20092;BMP180;10205;49.678;6.560;2022-12-29T09:42:32;99167.00;;;14.10
20092;BMP180;10205;49.678;6.560;2022-12-29T09:45:12;99158.00;;;14.10
20092;BMP180;10205;49.678;6.560;2022-12-29T09:47:44;99170.00;;;14.10
20092;BMP180;10205;49.678;6.560;2022-12-29T09:50:21;99182.00;;;14.10
20092;BMP180;10205;49.678;6.560;2022-12-29T09:52:58;99201.00;;;14.10
20092;BMP180;10205;49.678;6.560;2022-12-29T09:55:36;99196.00;;;14.10
20092;BMP180;10205;49.678;6.560;2022-12-29T09:58:20;99189.00;;;14.10
20092;BMP180;10205;49.678;6.560;2022-12-29T10:01:00;99190.00;;;14.10
20092;BMP180;10205;49.678;6.560;2022-12-29T10:03:44;99194.00;;;14.10
20092;BMP180;10205;49.678;6.560;2022-12-29T10:06:21;99184.00;;;14.10
20092;BMP180;10205;49.678;6.560;2022-12-29T10:08:57;99192.00;;;14.20
20092;BMP180;10205;49.678;6.560;2022-12-29T10:11:47;99176.00;;;14.20
20092;BMP180;10205;49.678;6.560;2022-12-29T10:14:40;99202.00;;;14.10
20092;BMP180;10205;49.678;6.560;2022-12-29T10:17:26;99210.00;;;14.10
20092;BMP180;10205;49.678;6.560;2022-12-29T10:20:19;99211.00;;;14.20
20092;BMP180;10205;49.678;6.560;2022-12-29T10:23:24;99196.00;;;14.20
20092;BMP180;10205;49.678;6.560;2022-12-29T10:25:55;99196.00;;;14.20
20092;BMP180;10205;49.678;6.560;2022-12-29T10:28:34;99221.00;;;14.20
20092;BMP180;10205;49.678;6.560;2022-12-29T10:31:05;99224.00;;;14.20
20092;BMP180;10205;49.678;6.560;2022-12-29T10:33:40;99223.00;;;14.20
20092;BMP180;10205;49.678;6.560;2022-12-29T10:36:17;99211.00;;;14.20
20092;BMP180;10205;49.678;6.560;2022-12-29T10:38:54;99207.00;;;14.20
20092;BMP180;10205;49.678;6.560;2022-12-29T10:41:28;99209.00;;;14.30
20092;BMP180;10205;49.678;6.560;2022-12-29T10:44:00;99209.00;;;14.30
20092;BMP180;10205;49.678;6.560;2022-12-29T10:46:32;99199.00;;;14.30
20092;BMP180;10205;49.678;6.560;2022-12-29T10:49:00;99205.00;;;14.30
20092;BMP180;10205;49.678;6.560;2022-12-29T10:51:33;99217.00;;;14.30
20092;BMP180;10205;49.678;6.560;2022-12-29T10:54:06;99193.00;;;14.30
20092;BMP180;10205;49.678;6.560;2022-12-29T10:56:42;99199.00;;;14.30
20092;BMP180;10205;49.678;6.560;2022-12-29T10:59:16;99205.00;;;14.30
20092;BMP180;10205;49.678;6.560;2022-12-29T11:01:58;99204.00;;;14.40
20092;BMP180;10205;49.678;6.560;2022-12-29T11:04:45;99194.00;;;14.40
20092;BMP180;10205;49.678;6.560;2022-12-29T11:07:20;99195.00;;;14.40
20092;BMP180;10205;49.678;6.560;2022-12-29T11:09:48;99199.00;;;14.40
20092;BMP180;10205;49.678;6.560;2022-12-29T11:12:23;99198.00;;;14.40
20092;BMP180;10205;49.678;6.560;2022-12-29T11:15:13;99196.00;;;14.40
20092;BMP180;10205;49.678;6.560;2022-12-29T11:17:46;99207.00;;;14.40
20092;BMP180;10205;49.678;6.560;2022-12-29T11:20:38;99202.00;;;14.40
20092;BMP180;10205;49.678;6.560;2022-12-29T11:23:31;99199.00;;;14.40
20092;BMP180;10205;49.678;6.560;2022-12-29T11:26:16;99189.00;;;14.40
20092;BMP180;10205;49.678;6.560;2022-12-29T11:28:47;99188.00;;;14.40
20092;BMP180;10205;49.678;6.560;2022-12-29T11:31:18;99187.00;;;14.40
20092;BMP180;10205;49.678;6.560;2022-12-29T11:33:48;99185.00;;;14.50
20092;BMP180;10205;49.678;6.560;2022-12-29T11:36:19;99190.00;;;14.50
20092;BMP180;10205;49.678;6.560;2022-12-29T11:38:51;99188.00;;;14.50
20092;BMP180;10205;49.678;6.560;2022-12-29T11:41:23;99202.00;;;14.50
20092;BMP180;10205;49.678;6.560;2022-12-29T11:43:53;99203.00;;;14.50
20092;BMP180;10205;49.678;6.560;2022-12-29T11:46:25;99199.00;;;14.50
20092;BMP180;10205;49.678;6.560;2022-12-29T11:48:54;99197.00;;;14.50
20092;BMP180;10205;49.678;6.560;2022-12-29T11:51:28;99208.00;;;14.50
20092;BMP180;10205;49.678;6.560;2022-12-29T11:54:00;99184.00;;;14.50
20092;BMP180;10205;49.678;6.560;2022-12-29T11:56:36;99204.00;;;14.50
20092;BMP180;10205;49.678;6.560;2022-12-29T11:59:43;99171.00;;;14.50
20092;BMP180;10205;49.678;6.560;2022-12-29T12:02:40;99186.00;;;14.60
20092;BMP180;10205;49.678;6.560;2022-12-29T12:05:33;99183.00;;;14.60
20092;BMP180;10205;49.678;6.560;2022-12-29T12:08:11;99181.00;;;14.60
20092;BMP180;10205;49.678;6.560;2022-12-29T12:10:45;99184.00;;;14.60
20092;BMP180;10205;49.678;6.560;2022-12-29T12:13:22;99192.00;;;14.60
20092;BMP180;10205;49.678;6.560;2022-12-29T12:15:59;99190.00;;;14.60
20092;BMP180;10205;49.678;6.560;2022-12-29T12:18:41;99189.00;;;14.60
20092;BMP180;10205;49.678;6.560;2022-12-29T12:21:20;99196.00;;;14.70
20092;BMP180;10205;49.678;6.560;2022-12-29T12:24:20;99194.00;;;14.70
20092;BMP180;10205;49.678;6.560;2022-12-29T12:27:00;99195.00;;;14.70
20092;BMP180;10205;49.678;6.560;2022-12-29T12:29:39;99191.00;;;14.70
20092;BMP180;10205;49.678;6.560;2022-12-29T12:32:17;99189.00;;;14.70
20092;BMP180;10205;49.678;6.560;2022-12-29T12:34:48;99188.00;;;14.70
20092;BMP180;10205;49.678;6.560;2022-12-29T12:37:52;99190.00;;;14.70
20092;BMP180;10205;49.678;6.560;2022-12-29T12:41:00;99200.00;;;14.70
20092;BMP180;10205;49.678;6.560;2022-12-29T12:43:50;99202.00;;;14.80
20092;BMP180;10205;49.678;6.560;2022-12-29T12:46:43;99191.00;;;14.80
20092;BMP180;10205;49.678;6.560;2022-12-29T12:49:57;99199.00;;;14.80
20092;BMP180;10205;49.678;6.560;2022-12-29T12:52:36;99207.00;;;14.80
20092;BMP180;10205;49.678;6.560;2022-12-29T12:55:37;99207.00;;;14.90
20092;BMP180;10205;49.678;6.560;2022-12-29T12:58:19;99206.00;;;14.90
20092;BMP180;10205;49.678;6.560;2022-12-29T13:01:11;99203.00;;;14.90
20092;BMP180;10205;49.678;6.560;2022-12-29T13:04:06;99194.00;;;14.90
20092;BMP180;10205;49.678;6.560;2022-12-29T13:06:43;99191.00;;;14.90
20092;BMP180;10205;49.678;6.560;2022-12-29T13:09:40;99233.00;;;14.90
20092;BMP180;10205;49.678;6.560;2022-12-29T13:12:21;99222.00;;;15.00
20092;BMP180;10205;49.678;6.560;2022-12-29T13:15:04;99213.00;;;15.00
20092;BMP180;10205;49.678;6.560;2022-12-29T13:17:42;99224.00;;;15.00
20092;BMP180;10205;49.678;6.560;2022-12-29T13:20:26;99225.00;;;15.00
20092;BMP180;10205;49.678;6.560;2022-12-29T13:23:03;99219.00;;;15.00
20092;BMP180;10205;49.678;6.560;2022-12-29T13:25:42;99209.00;;;15.00
20092;BMP180;10205;49.678;6.560;2022-12-29T13:28:21;99213.00;;;15.00
20092;BMP180;10205;49.678;6.560;2022-12-29T13:30:59;99217.00;;;15.00
20092;BMP180;10205;49.678;6.560;2022-12-29T13:33:39;99223.00;;;15.00
20092;BMP180;10205;49.678;6.560;2022-12-29T13:36:22;99223.00;;;15.00
20092;BMP180;10205;49.678;6.560;2022-12-29T13:39:00;99227.00;;;15.00
20092;BMP180;10205;49.678;6.560;2022-12-29T13:41:34;99236.00;;;15.00
20092;BMP180;10205;49.678;6.560;2022-12-29T13:44:05;99232.00;;;15.00
20092;BMP180;10205;49.678;6.560;2022-12-29T13:46:38;99218.00;;;15.00
20092;BMP180;10205;49.678;6.560;2022-12-29T13:49:13;99244.00;;;15.00
20092;BMP180;10205;49.678;6.560;2022-12-29T13:51:47;99232.00;;;15.00
20092;BMP180;10205;49.678;6.560;2022-12-29T13:54:35;99219.00;;;15.00
20092;BMP180;10205;49.678;6.560;2022-12-29T13:57:13;99220.00;;;15.00
20092;BMP180;10205;49.678;6.560;2022-12-29T13:59:50;99220.00;;;15.00
20092;BMP180;10205;49.678;6.560;2022-12-29T14:02:29;99220.00;;;15.00
20092;BMP180;10205;49.678;6.560;2022-12-29T14:05:03;99229.00;;;15.00
20092;BMP180;10205;49.678;6.560;2022-12-29T14:07:37;99238.00;;;15.00
20092;BMP180;10205;49.678;6.560;2022-12-29T14:10:06;99241.00;;;15.00
20092;BMP180;10205;49.678;6.560;2022-12-29T14:12:37;99251.00;;;15.00
20092;BMP180;10205;49.678;6.560;2022-12-29T14:15:19;99237.00;;;14.90
20092;BMP180;10205;49.678;6.560;2022-12-29T14:18:09;99228.00;;;14.90
20092;BMP180;10205;49.678;6.560;2022-12-29T14:20:39;99229.00;;;14.90
20092;BMP180;10205;49.678;6.560;2022-12-29T14:23:26;99245.00;;;14.90
20092;BMP180;10205;49.678;6.560;2022-12-29T14:26:10;99238.00;;;14.90
20092;BMP180;10205;49.678;6.560;2022-12-29T14:28:40;99236.00;;;14.90
20092;BMP180;10205;49.678;6.560;2022-12-29T14:31:35;99249.00;;;14.80
20092;BMP180;10205;49.678;6.560;2022-12-29T14:34:38;99239.00;;;14.80
20092;BMP180;10205;49.678;6.560;2022-12-29T14:37:24;99241.00;;;14.70
20092;BMP180;10205;49.678;6.560;2022-12-29T14:40:13;99245.00;;;14.70
20092;BMP180;10205;49.678;6.560;2022-12-29T14:42:42;99245.00;;;14.70
20092;BMP180;10205;49.678;6.560;2022-12-29T14:45:27;99250.00;;;14.70
20092;BMP180;10205;49.678;6.560;2022-12-29T14:47:56;99252.00;;;14.60
20092;BMP180;10205;49.678;6.560;2022-12-29T14:50:33;99277.00;;;14.70